sensor_id;sensor_type;location;lat;lon;timestamp;pressure;altitude;pressure_sealevel;temperature;humidity
36192;BME280;22233;42.708;23.360;2023-02-19T00:00:28;95695.09;;;9.95;50.16
36192;BME280;22233;42.708;23.360;2023-02-19T00:02:53;95701.75;;;10.03;49.30
36192;BME280;22233;42.708;23.360;2023-02-19T00:05:21;95702.22;;;9.91;50.03
36192;BME280;22233;42.708;23.360;2023-02-19T00:07:46;95696.38;;;9.84;49.74
36192;BME280;22233;42.708;23.360;2023-02-19T00:10:11;95689.97;;;9.93;49.94
36192;BME280;22233;42.708;23.360;2023-02-19T00:12:37;95695.09;;;9.81;50.54
36192;BME280;22233;42.708;23.360;2023-02-19T00:15:02;95687.75;;;9.82;50.66
36192;BME280;22233;42.708;23.360;2023-02-19T00:17:29;95680.91;;;9.56;50.80
36192;BME280;22233;42.708;23.360;2023-02-19T00:19:55;95700.19;;;9.08;51.48
36192;BME280;22233;42.708;23.360;2023-02-19T00:22:20;95682.09;;;9.04;51.78
36192;BME280;22233;42.708;23.360;2023-02-19T00:24:47;95684.19;;;8.74;52.39
36192;BME280;22233;42.708;23.360;2023-02-19T00:27:12;95673.34;;;8.55;53.40
36192;BME280;22233;42.708;23.360;2023-02-19T00:29:38;95686.88;;;8.93;53.12
36192;BME280;22233;42.708;23.360;2023-02-19T00:32:03;95677.38;;;8.76;52.62
36192;BME280;22233;42.708;23.360;2023-02-19T00:34:29;95684.66;;;8.95;52.56
36192;BME280;22233;42.708;23.360;2023-02-19T00:36:54;95667.28;;;8.82;52.15
36192;BME280;22233;42.708;23.360;2023-02-19T00:39:20;95672.75;;;8.96;52.24
36192;BME280;22233;42.708;23.360;2023-02-19T00:41:46;95666.81;;;8.94;51.86
36192;BME280;22233;42.708;23.360;2023-02-19T00:44:12;95665.81;;;8.90;52.65
36192;BME280;22233;42.708;23.360;2023-02-19T00:46:40;95664.00;;;8.99;52.75
36192;BME280;22233;42.708;23.360;2023-02-19T00:49:07;95662.94;;;8.81;52.63
36192;BME280;22233;42.708;23.360;2023-02-19T00:51:35;95649.72;;;8.79;52.38
36192;BME280;22233;42.708;23.360;2023-02-19T00:54:02;95647.50;;;8.82;52.42
36192;BME280;22233;42.708;23.360;2023-02-19T00:56:28;95644.72;;;8.87;52.36
36192;BME280;22233;42.708;23.360;2023-02-19T00:58:55;95650.50;;;8.80;52.29
36192;BME280;22233;42.708;23.360;2023-02-19T01:01:21;95636.97;;;8.61;52.69
36192;BME280;22233;42.708;23.360;2023-02-19T01:03:47;95639.84;;;8.70;52.60
36192;BME280;22233;42.708;23.360;2023-02-19T01:06:15;95661.72;;;8.73;53.41
36192;BME280;22233;42.708;23.360;2023-02-19T01:08:40;95647.97;;;8.51;52.82
36192;BME280;22233;42.708;23.360;2023-02-19T01:11:07;95647.72;;;8.09;54.01
36192;BME280;22233;42.708;23.360;2023-02-19T01:13:33;95672.84;;;8.53;53.35
36192;BME280;22233;42.708;23.360;2023-02-19T01:18:38;95639.47;;;8.19;53.97
36192;BME280;22233;42.708;23.360;2023-02-19T01:21:05;95654.84;;;7.81;55.30
36192;BME280;22233;42.708;23.360;2023-02-19T01:23:31;95643.91;;;7.91;54.90
36192;BME280;22233;42.708;23.360;2023-02-19T01:25:57;95659.03;;;7.92;55.01
36192;BME280;22233;42.708;23.360;2023-02-19T01:28:22;95636.16;;;8.23;54.33
36192;BME280;22233;42.708;23.360;2023-02-19T01:30:48;95641.44;;;8.33;53.99
36192;BME280;22233;42.708;23.360;2023-02-19T01:33:13;95638.88;;;8.04;54.33
36192;BME280;22233;42.708;23.360;2023-02-19T01:35:39;95659.72;;;8.03;54.80
36192;BME280;22233;42.708;23.360;2023-02-19T01:38:04;95657.34;;;7.96;54.80
36192;BME280;22233;42.708;23.360;2023-02-19T01:40:32;95670.69;;;8.12;55.13
36192;BME280;22233;42.708;23.360;2023-02-19T01:42:58;95663.81;;;8.19;54.46
36192;BME280;22233;42.708;23.360;2023-02-19T01:47:59;95696.97;;;8.30;54.22
36192;BME280;22233;42.708;23.360;2023-02-19T01:50:29;95696.03;;;8.40;54.61
36192;BME280;22233;42.708;23.360;2023-02-19T01:52:58;95693.22;;;8.26;54.23
36192;BME280;22233;42.708;23.360;2023-02-19T01:55:25;95704.50;;;8.33;54.69
36192;BME280;22233;42.708;23.360;2023-02-19T01:57:53;95694.09;;;8.40;54.27
36192;BME280;22233;42.708;23.360;2023-02-19T02:00:19;95686.22;;;8.63;53.96
36192;BME280;22233;42.708;23.360;2023-02-19T02:02:48;95667.59;;;8.18;54.66
36192;BME280;22233;42.708;23.360;2023-02-19T02:08:05;95676.78;;;7.98;55.25
36192;BME280;22233;42.708;23.360;2023-02-19T02:10:49;95694.81;;;7.60;56.94
36192;BME280;22233;42.708;23.360;2023-02-19T02:13:16;95686.53;;;7.99;55.96
36192;BME280;22233;42.708;23.360;2023-02-19T02:15:58;95692.63;;;7.62;57.15
36192;BME280;22233;42.708;23.360;2023-02-19T02:18:40;95714.28;;;7.33;57.77
36192;BME280;22233;42.708;23.360;2023-02-19T02:24:45;95685.38;;;7.57;56.92
36192;BME280;22233;42.708;23.360;2023-02-19T02:35:37;95686.88;;;8.36;54.27
36192;BME280;22233;42.708;23.360;2023-02-19T02:38:06;95668.50;;;8.33;54.73
36192;BME280;22233;42.708;23.360;2023-02-19T02:40:33;95671.06;;;8.24;54.61
36192;BME280;22233;42.708;23.360;2023-02-19T02:42:59;95678.56;;;8.08;54.86
36192;BME280;22233;42.708;23.360;2023-02-19T02:45:29;95676.97;;;8.07;54.93
36192;BME280;22233;42.708;23.360;2023-02-19T02:56:14;95686.25;;;8.01;54.75
36192;BME280;22233;42.708;23.360;2023-02-19T02:58:41;95669.13;;;8.06;54.61
36192;BME280;22233;42.708;23.360;2023-02-19T03:01:10;95694.97;;;8.17;54.23
36192;BME280;22233;42.708;23.360;2023-02-19T03:04:04;95676.16;;;8.07;54.64
36192;BME280;22233;42.708;23.360;2023-02-19T03:06:34;95688.59;;;8.08;55.32
36192;BME280;22233;42.708;23.360;2023-02-19T03:09:08;95705.97;;;8.26;54.74
36192;BME280;22233;42.708;23.360;2023-02-19T03:11:39;95708.19;;;8.43;54.11
36192;BME280;22233;42.708;23.360;2023-02-19T03:14:40;95697.56;;;8.27;54.59
36192;BME280;22233;42.708;23.360;2023-02-19T03:17:36;95696.69;;;8.32;54.63
36192;BME280;22233;42.708;23.360;2023-02-19T03:20:22;95703.16;;;8.31;54.00
36192;BME280;22233;42.708;23.360;2023-02-19T03:22:49;95715.91;;;8.30;54.63
36192;BME280;22233;42.708;23.360;2023-02-19T03:25:20;95709.47;;;8.26;54.52
36192;BME280;22233;42.708;23.360;2023-02-19T03:28:07;95711.38;;;7.53;56.39
36192;BME280;22233;42.708;23.360;2023-02-19T03:30:39;95726.31;;;7.75;55.81
36192;BME280;22233;42.708;23.360;2023-02-19T03:33:09;95717.34;;;7.79;55.62
36192;BME280;22233;42.708;23.360;2023-02-19T03:35:41;95731.38;;;8.06;55.14
36192;BME280;22233;42.708;23.360;2023-02-19T03:38:13;95743.22;;;8.10;55.32
36192;BME280;22233;42.708;23.360;2023-02-19T03:41:06;95747.19;;;8.17;54.87
36192;BME280;22233;42.708;23.360;2023-02-19T03:43:37;95745.75;;;8.25;54.57
36192;BME280;22233;42.708;23.360;2023-02-19T03:49:17;95716.72;;;8.07;54.26
36192;BME280;22233;42.708;23.360;2023-02-19T03:52:19;95749.13;;;8.36;54.77
36192;BME280;22233;42.708;23.360;2023-02-19T03:54:51;95747.47;;;8.16;54.84
36192;BME280;22233;42.708;23.360;2023-02-19T03:57:20;95750.22;;;8.11;54.59
36192;BME280;22233;42.708;23.360;2023-02-19T03:59:54;95762.03;;;8.20;55.30
36192;BME280;22233;42.708;23.360;2023-02-19T04:05:31;95743.75;;;7.58;56.06
36192;BME280;22233;42.708;23.360;2023-02-19T04:08:12;95752.63;;;7.93;55.53
36192;BME280;22233;42.708;23.360;2023-02-19T04:10:40;95757.94;;;7.98;55.11
36192;BME280;22233;42.708;23.360;2023-02-19T04:13:11;95743.69;;;7.93;54.87
36192;BME280;22233;42.708;23.360;2023-02-19T04:15:41;95761.94;;;8.06;54.93
36192;BME280;22233;42.708;23.360;2023-02-19T04:18:13;95757.16;;;7.98;54.51
36192;BME280;22233;42.708;23.360;2023-02-19T04:20:43;95770.53;;;8.13;54.68
36192;BME280;22233;42.708;23.360;2023-02-19T04:23:09;95759.28;;;8.25;55.03
36192;BME280;22233;42.708;23.360;2023-02-19T04:25:37;95741.41;;;8.05;54.41
36192;BME280;22233;42.708;23.360;2023-02-19T04:28:06;95761.06;;;8.11;55.76
36192;BME280;22233;42.708;23.360;2023-02-19T04:30:32;95741.84;;;7.88;55.36
36192;BME280;22233;42.708;23.360;2023-02-19T04:32:57;95764.91;;;8.05;55.16
36192;BME280;22233;42.708;23.360;2023-02-19T04:35:22;95766.41;;;8.16;54.83
36192;BME280;22233;42.708;23.360;2023-02-19T04:37:48;95767.22;;;7.92;55.52
36192;BME280;22233;42.708;23.360;2023-02-19T04:40:13;95765.88;;;7.95;55.18
36192;BME280;22233;42.708;23.360;2023-02-19T04:42:38;95771.38;;;8.09;54.81
36192;BME280;22233;42.708;23.360;2023-02-19T04:45:04;95780.34;;;8.04;54.69
36192;BME280;22233;42.708;23.360;2023-02-19T04:47:33;95773.16;;;7.94;54.83
36192;BME280;22233;42.708;23.360;2023-02-19T04:49:58;95761.25;;;7.66;55.95
36192;BME280;22233;42.708;23.360;2023-02-19T04:52:23;95770.78;;;7.88;55.24
36192;BME280;22233;42.708;23.360;2023-02-19T04:54:49;95758.66;;;7.85;55.40
36192;BME280;22233;42.708;23.360;2023-02-19T04:57:15;95757.16;;;7.98;55.27
36192;BME280;22233;42.708;23.360;2023-02-19T04:59:40;95777.06;;;7.83;55.83
36192;BME280;22233;42.708;23.360;2023-02-19T05:02:06;95779.44;;;7.90;55.81
36192;BME280;22233;42.708;23.360;2023-02-19T05:04:31;95783.13;;;7.99;55.09
36192;BME280;22233;42.708;23.360;2023-02-19T05:06:56;95771.84;;;7.92;55.59
36192;BME280;22233;42.708;23.360;2023-02-19T05:09:22;95784.22;;;7.98;55.22
36192;BME280;22233;42.708;23.360;2023-02-19T05:11:47;95786.34;;;7.77;56.22
36192;BME280;22233;42.708;23.360;2023-02-19T05:14:13;95778.25;;;7.72;56.36
36192;BME280;22233;42.708;23.360;2023-02-19T05:16:38;95789.44;;;7.60;57.37
36192;BME280;22233;42.708;23.360;2023-02-19T05:19:04;95779.28;;;7.76;56.71
36192;BME280;22233;42.708;23.360;2023-02-19T05:21:29;95790.81;;;7.87;56.41
36192;BME280;22233;42.708;23.360;2023-02-19T05:23:55;95791.53;;;7.97;55.94
36192;BME280;22233;42.708;23.360;2023-02-19T05:26:22;95770.28;;;8.10;55.88
36192;BME280;22233;42.708;23.360;2023-02-19T05:28:50;95785.31;;;8.21;55.29
36192;BME280;22233;42.708;23.360;2023-02-19T05:31:16;95799.25;;;8.09;55.76
36192;BME280;22233;42.708;23.360;2023-02-19T05:33:41;95800.38;;;7.79;56.26
36192;BME280;22233;42.708;23.360;2023-02-19T05:36:10;95808.31;;;7.94;56.21
36192;BME280;22233;42.708;23.360;2023-02-19T05:38:36;95820.75;;;7.95;56.28
36192;BME280;22233;42.708;23.360;2023-02-19T05:41:16;95823.84;;;7.84;56.59
36192;BME280;22233;42.708;23.360;2023-02-19T05:43:42;95829.56;;;7.48;57.45
36192;BME280;22233;42.708;23.360;2023-02-19T05:46:09;95826.84;;;7.53;57.26
36192;BME280;22233;42.708;23.360;2023-02-19T05:48:36;95817.53;;;7.30;58.02
36192;BME280;22233;42.708;23.360;2023-02-19T05:51:07;95815.66;;;7.65;57.47
36192;BME280;22233;42.708;23.360;2023-02-19T05:53:34;95821.41;;;7.82;56.75
36192;BME280;22233;42.708;23.360;2023-02-19T05:56:00;95819.41;;;7.69;57.30
36192;BME280;22233;42.708;23.360;2023-02-19T05:58:26;95814.44;;;7.76;56.68
36192;BME280;22233;42.708;23.360;2023-02-19T06:00:52;95825.88;;;6.94;59.17
36192;BME280;22233;42.708;23.360;2023-02-19T06:03:18;95831.06;;;7.30;59.15
36192;BME280;22233;42.708;23.360;2023-02-19T06:05:44;95835.19;;;7.17;59.21
36192;BME280;22233;42.708;23.360;2023-02-19T06:08:13;95831.03;;;7.64;57.74
36192;BME280;22233;42.708;23.360;2023-02-19T06:10:39;95841.56;;;7.71;57.82
36192;BME280;22233;42.708;23.360;2023-02-19T06:13:08;95838.44;;;7.83;57.43
36192;BME280;22233;42.708;23.360;2023-02-19T06:15:35;95846.09;;;8.05;57.05
36192;BME280;22233;42.708;23.360;2023-02-19T06:18:01;95834.22;;;8.00;57.05
36192;BME280;22233;42.708;23.360;2023-02-19T06:20:27;95849.56;;;8.34;55.96
36192;BME280;22233;42.708;23.360;2023-02-19T06:22:52;95844.41;;;8.62;56.08
36192;BME280;22233;42.708;23.360;2023-02-19T06:25:18;95847.50;;;8.74;55.25
36192;BME280;22233;42.708;23.360;2023-02-19T06:27:44;95855.06;;;8.96;55.13
36192;BME280;22233;42.708;23.360;2023-02-19T06:30:10;95831.84;;;8.71;54.94
36192;BME280;22233;42.708;23.360;2023-02-19T06:32:35;95856.31;;;8.85;54.26
36192;BME280;22233;42.708;23.360;2023-02-19T06:35:01;95848.34;;;8.94;53.50
36192;BME280;22233;42.708;23.360;2023-02-19T06:37:26;95852.28;;;8.83;53.97
36192;BME280;22233;42.708;23.360;2023-02-19T06:39:52;95848.88;;;8.96;53.41
36192;BME280;22233;42.708;23.360;2023-02-19T06:42:17;95835.50;;;8.80;53.82
36192;BME280;22233;42.708;23.360;2023-02-19T06:44:42;95840.00;;;9.09;53.53
36192;BME280;22233;42.708;23.360;2023-02-19T06:47:08;95836.63;;;9.17;52.69
36192;BME280;22233;42.708;23.360;2023-02-19T06:49:33;95855.59;;;9.17;53.37
36192;BME280;22233;42.708;23.360;2023-02-19T06:51:59;95846.50;;;9.46;52.78
36192;BME280;22233;42.708;23.360;2023-02-19T06:54:25;95848.63;;;9.49;52.51
36192;BME280;22233;42.708;23.360;2023-02-19T06:56:51;95855.84;;;9.73;51.57
36192;BME280;22233;42.708;23.360;2023-02-19T06:59:16;95841.22;;;9.88;50.88
36192;BME280;22233;42.708;23.360;2023-02-19T07:01:43;95847.16;;;9.90;50.91
36192;BME280;22233;42.708;23.360;2023-02-19T07:04:09;95852.94;;;10.16;50.91
36192;BME280;22233;42.708;23.360;2023-02-19T07:06:35;95854.59;;;10.31;49.95
36192;BME280;22233;42.708;23.360;2023-02-19T07:09:02;95855.31;;;10.64;49.62
36192;BME280;22233;42.708;23.360;2023-02-19T07:11:29;95847.19;;;10.36;50.59
36192;BME280;22233;42.708;23.360;2023-02-19T07:14:00;95848.38;;;10.86;49.47
36192;BME280;22233;42.708;23.360;2023-02-19T07:16:26;95854.00;;;10.89;49.32
36192;BME280;22233;42.708;23.360;2023-02-19T07:18:55;95855.41;;;10.87;49.24
36192;BME280;22233;42.708;23.360;2023-02-19T07:21:21;95838.06;;;10.96;48.67
36192;BME280;22233;42.708;23.360;2023-02-19T07:23:46;95842.03;;;11.27;48.00
36192;BME280;22233;42.708;23.360;2023-02-19T07:26:14;95823.88;;;11.36;48.25
36192;BME280;22233;42.708;23.360;2023-02-19T07:28:40;95806.66;;;11.27;49.03
36192;BME280;22233;42.708;23.360;2023-02-19T07:31:06;95812.63;;;11.74;48.62
36192;BME280;22233;42.708;23.360;2023-02-19T07:33:31;95808.94;;;11.70;47.74
36192;BME280;22233;42.708;23.360;2023-02-19T07:35:57;95822.44;;;11.97;47.36
36192;BME280;22233;42.708;23.360;2023-02-19T07:38:23;95814.28;;;12.06;46.68
36192;BME280;22233;42.708;23.360;2023-02-19T07:41:01;95813.75;;;12.27;47.32
36192;BME280;22233;42.708;23.360;2023-02-19T07:43:29;95823.53;;;12.28;47.04
36192;BME280;22233;42.708;23.360;2023-02-19T07:45:55;95825.84;;;12.43;47.42
36192;BME280;22233;42.708;23.360;2023-02-19T07:48:21;95825.91;;;12.69;45.70
36192;BME280;22233;42.708;23.360;2023-02-19T07:51:08;95810.84;;;12.63;45.55
36192;BME280;22233;42.708;23.360;2023-02-19T07:53:35;95816.34;;;12.72;45.51
36192;BME280;22233;42.708;23.360;2023-02-19T07:56:02;95821.94;;;12.75;46.28
36192;BME280;22233;42.708;23.360;2023-02-19T07:58:29;95823.38;;;12.82;45.73
36192;BME280;22233;42.708;23.360;2023-02-19T08:00:54;95820.03;;;12.85;45.97
36192;BME280;22233;42.708;23.360;2023-02-19T08:03:20;95815.69;;;12.84;45.46
36192;BME280;22233;42.708;23.360;2023-02-19T08:05:45;95831.78;;;12.94;44.62
36192;BME280;22233;42.708;23.360;2023-02-19T08:08:13;95822.16;;;12.88;44.90
36192;BME280;22233;42.708;23.360;2023-02-19T08:10:38;95827.97;;;13.21;44.55
36192;BME280;22233;42.708;23.360;2023-02-19T08:13:23;95825.25;;;13.56;43.94
36192;BME280;22233;42.708;23.360;2023-02-19T08:15:52;95826.88;;;13.57;43.53
36192;BME280;22233;42.708;23.360;2023-02-19T08:18:21;95829.91;;;13.29;44.04
36192;BME280;22233;42.708;23.360;2023-02-19T08:20:47;95828.00;;;13.56;44.08
36192;BME280;22233;42.708;23.360;2023-02-19T08:23:14;95824.66;;;13.50;43.84
36192;BME280;22233;42.708;23.360;2023-02-19T08:25:41;95822.06;;;13.36;43.83
36192;BME280;22233;42.708;23.360;2023-02-19T08:28:08;95804.06;;;13.79;43.53
36192;BME280;22233;42.708;23.360;2023-02-19T08:30:36;95819.28;;;13.97;43.29
36192;BME280;22233;42.708;23.360;2023-02-19T08:33:03;95816.63;;;14.27;42.18
36192;BME280;22233;42.708;23.360;2023-02-19T08:35:29;95819.47;;;14.39;42.18
36192;BME280;22233;42.708;23.360;2023-02-19T08:37:58;95812.75;;;14.37;41.97
36192;BME280;22233;42.708;23.360;2023-02-19T08:40:24;95815.53;;;14.19;42.91
36192;BME280;22233;42.708;23.360;2023-02-19T08:42:50;95810.94;;;14.03;43.04
36192;BME280;22233;42.708;23.360;2023-02-19T08:45:17;95801.19;;;14.31;42.47
36192;BME280;22233;42.708;23.360;2023-02-19T08:47:43;95801.69;;;14.72;41.60
36192;BME280;22233;42.708;23.360;2023-02-19T08:50:09;95798.88;;;14.51;42.00
36192;BME280;22233;42.708;23.360;2023-02-19T08:52:34;95799.94;;;14.67;41.68
36192;BME280;22233;42.708;23.360;2023-02-19T08:55:01;95793.19;;;14.94;41.64
36192;BME280;22233;42.708;23.360;2023-02-19T08:57:27;95795.66;;;15.08;41.48
36192;BME280;22233;42.708;23.360;2023-02-19T08:59:54;95791.81;;;15.09;41.32
36192;BME280;22233;42.708;23.360;2023-02-19T09:02:20;95782.00;;;14.78;41.91
36192;BME280;22233;42.708;23.360;2023-02-19T09:04:46;95783.00;;;15.04;41.24
36192;BME280;22233;42.708;23.360;2023-02-19T09:07:12;95785.00;;;15.15;41.71
36192;BME280;22233;42.708;23.360;2023-02-19T09:09:37;95774.50;;;15.38;41.08
36192;BME280;22233;42.708;23.360;2023-02-19T09:12:07;95767.91;;;15.40;41.18
36192;BME280;22233;42.708;23.360;2023-02-19T09:14:33;95762.53;;;15.64;40.86
36192;BME280;22233;42.708;23.360;2023-02-19T09:17:03;95756.94;;;15.82;40.66
36192;BME280;22233;42.708;23.360;2023-02-19T09:19:29;95752.28;;;15.40;41.44
36192;BME280;22233;42.708;23.360;2023-02-19T09:21:55;95746.91;;;15.31;41.47
36192;BME280;22233;42.708;23.360;2023-02-19T09:24:20;95748.44;;;15.20;41.47
36192;BME280;22233;42.708;23.360;2023-02-19T09:26:50;95761.97;;;15.16;42.05
36192;BME280;22233;42.708;23.360;2023-02-19T09:29:16;95757.72;;;15.28;41.61
36192;BME280;22233;42.708;23.360;2023-02-19T09:31:41;95748.84;;;15.64;40.91
36192;BME280;22233;42.708;23.360;2023-02-19T09:34:07;95750.56;;;15.69;41.14
36192;BME280;22233;42.708;23.360;2023-02-19T09:36:32;95742.69;;;15.34;41.86
36192;BME280;22233;42.708;23.360;2023-02-19T09:38:59;95750.22;;;15.70;41.16
36192;BME280;22233;42.708;23.360;2023-02-19T09:41:30;95762.88;;;15.63;41.05
36192;BME280;22233;42.708;23.360;2023-02-19T09:43:57;95755.22;;;15.89;40.94
36192;BME280;22233;42.708;23.360;2023-02-19T09:47:05;95754.09;;;15.90;40.58
36192;BME280;22233;42.708;23.360;2023-02-19T09:49:32;95747.16;;;16.05;40.68
36192;BME280;22233;42.708;23.360;2023-02-19T09:54:39;95746.69;;;16.03;40.40
36192;BME280;22233;42.708;23.360;2023-02-19T09:57:13;95742.97;;;16.45;39.99
36192;BME280;22233;42.708;23.360;2023-02-19T09:59:43;95727.50;;;16.03;40.20
36192;BME280;22233;42.708;23.360;2023-02-19T10:02:15;95730.38;;;16.19;40.48
36192;BME280;22233;42.708;23.360;2023-02-19T10:04:42;95718.50;;;16.27;40.29
36192;BME280;22233;42.708;23.360;2023-02-19T10:07:13;95728.34;;;16.41;40.25
36192;BME280;22233;42.708;23.360;2023-02-19T10:09:39;95720.91;;;16.53;39.18
36192;BME280;22233;42.708;23.360;2023-02-19T10:12:20;95694.75;;;16.44;38.77
36192;BME280;22233;42.708;23.360;2023-02-19T10:14:49;95688.94;;;16.33;39.63
36192;BME280;22233;42.708;23.360;2023-02-19T10:17:23;95688.09;;;15.83;40.15
36192;BME280;22233;42.708;23.360;2023-02-19T10:19:50;95671.44;;;15.76;40.84
36192;BME280;22233;42.708;23.360;2023-02-19T10:22:17;95678.44;;;16.10;40.06
36192;BME280;22233;42.708;23.360;2023-02-19T10:24:44;95656.84;;;16.09;39.60
36192;BME280;22233;42.708;23.360;2023-02-19T10:27:13;95672.34;;;16.66;39.03
36192;BME280;22233;42.708;23.360;2023-02-19T10:29:39;95652.13;;;16.58;38.45
36192;BME280;22233;42.708;23.360;2023-02-19T10:32:15;95657.50;;;16.55;38.44
36192;BME280;22233;42.708;23.360;2023-02-19T10:34:45;95648.38;;;16.38;38.93
36192;BME280;22233;42.708;23.360;2023-02-19T10:37:14;95647.78;;;16.57;38.25
36192;BME280;22233;42.708;23.360;2023-02-19T10:39:46;95641.28;;;16.50;38.73
36192;BME280;22233;42.708;23.360;2023-02-19T10:42:22;95630.56;;;16.45;38.87
36192;BME280;22233;42.708;23.360;2023-02-19T10:44:59;95610.19;;;16.46;38.01
36192;BME280;22233;42.708;23.360;2023-02-19T10:47:28;95589.94;;;16.22;38.72
36192;BME280;22233;42.708;23.360;2023-02-19T10:49:58;95600.25;;;16.53;38.22
36192;BME280;22233;42.708;23.360;2023-02-19T10:52:27;95595.09;;;16.64;37.73
36192;BME280;22233;42.708;23.360;2023-02-19T10:55:23;95591.84;;;16.34;38.40
36192;BME280;22233;42.708;23.360;2023-02-19T10:57:41;95600.94;;;16.63;37.91
36192;BME280;22233;42.708;23.360;2023-02-19T11:00:27;95590.25;;;16.86;37.80
36192;BME280;22233;42.708;23.360;2023-02-19T11:06:02;95577.06;;;17.20;37.04
36192;BME280;22233;42.708;23.360;2023-02-19T11:08:29;95591.59;;;17.36;36.38
36192;BME280;22233;42.708;23.360;2023-02-19T11:10:58;95558.03;;;17.27;36.15
36192;BME280;22233;42.708;23.360;2023-02-19T11:13:33;95561.78;;;17.34;36.53
36192;BME280;22233;42.708;23.360;2023-02-19T11:16:02;95561.06;;;17.69;36.00
36192;BME280;22233;42.708;23.360;2023-02-19T11:18:30;95555.53;;;17.22;36.39
36192;BME280;22233;42.708;23.360;2023-02-19T11:20:59;95548.03;;;17.34;36.26
36192;BME280;22233;42.708;23.360;2023-02-19T11:23:43;95527.13;;;17.46;35.75
36192;BME280;22233;42.708;23.360;2023-02-19T11:26:18;95531.53;;;17.50;35.76
36192;BME280;22233;42.708;23.360;2023-02-19T11:28:45;95533.31;;;17.58;36.49
36192;BME280;22233;42.708;23.360;2023-02-19T11:33:56;95510.78;;;18.01;35.56
36192;BME280;22233;42.708;23.360;2023-02-19T11:38:47;95505.84;;;17.90;35.07
36192;BME280;22233;42.708;23.360;2023-02-19T11:46:57;95503.66;;;18.35;34.15
36192;BME280;22233;42.708;23.360;2023-02-19T11:52:33;95489.28;;;18.61;33.76
36192;BME280;22233;42.708;23.360;2023-02-19T11:57:43;95501.22;;;19.08;33.09
36192;BME280;22233;42.708;23.360;2023-02-19T12:00:28;95488.19;;;18.66;33.63
36192;BME280;22233;42.708;23.360;2023-02-19T12:03:20;95477.81;;;18.79;33.29
36192;BME280;22233;42.708;23.360;2023-02-19T12:16:42;95465.44;;;19.81;31.74
36192;BME280;22233;42.708;23.360;2023-02-19T12:24:46;95447.31;;;20.06;30.73
36192;BME280;22233;42.708;23.360;2023-02-19T12:32:34;95430.06;;;20.47;30.28
36192;BME280;22233;42.708;23.360;2023-02-19T12:45:28;95406.44;;;21.28;29.31
36192;BME280;22233;42.708;23.360;2023-02-19T12:50:38;95386.38;;;20.90;29.11
36192;BME280;22233;42.708;23.360;2023-02-19T12:53:22;95382.25;;;21.14;28.76
36192;BME280;22233;42.708;23.360;2023-02-19T12:55:50;95378.81;;;21.28;28.51
36192;BME280;22233;42.708;23.360;2023-02-19T12:58:27;95378.69;;;21.62;27.98
36192;BME280;22233;42.708;23.360;2023-02-19T13:00:56;95349.69;;;21.38;27.84
36192;BME280;22233;42.708;23.360;2023-02-19T13:06:08;95343.06;;;21.46;28.18
36192;BME280;22233;42.708;23.360;2023-02-19T13:08:46;95349.66;;;21.34;28.35
36192;BME280;22233;42.708;23.360;2023-02-19T13:11:21;95345.94;;;21.64;27.86
36192;BME280;22233;42.708;23.360;2023-02-19T13:13:56;95343.34;;;21.33;28.34
36192;BME280;22233;42.708;23.360;2023-02-19T13:16:25;95335.63;;;21.61;27.72
36192;BME280;22233;42.708;23.360;2023-02-19T13:19:00;95335.41;;;21.87;27.62
36192;BME280;22233;42.708;23.360;2023-02-19T13:21:31;95301.72;;;21.71;27.42
36192;BME280;22233;42.708;23.360;2023-02-19T13:24:22;95325.13;;;21.91;27.72
36192;BME280;22233;42.708;23.360;2023-02-19T13:35:22;95306.78;;;22.60;26.57
36192;BME280;22233;42.708;23.360;2023-02-19T13:37:49;95297.69;;;22.96;25.82
36192;BME280;22233;42.708;23.360;2023-02-19T13:40:26;95292.91;;;22.42;26.84
36192;BME280;22233;42.708;23.360;2023-02-19T13:42:56;95292.16;;;22.78;26.60
36192;BME280;22233;42.708;23.360;2023-02-19T13:45:36;95304.81;;;22.79;26.77
36192;BME280;22233;42.708;23.360;2023-02-19T13:48:33;95296.16;;;23.16;26.13
36192;BME280;22233;42.708;23.360;2023-02-19T13:59:35;95294.53;;;22.65;26.48
36192;BME280;22233;42.708;23.360;2023-02-19T14:04:45;95280.19;;;22.23;27.39
36192;BME280;22233;42.708;23.360;2023-02-19T14:14:37;95254.53;;;21.31;29.08
36192;BME280;22233;42.708;23.360;2023-02-19T14:17:23;95277.44;;;21.35;28.87
36192;BME280;22233;42.708;23.360;2023-02-19T14:20:08;95272.66;;;21.29;28.68
36192;BME280;22233;42.708;23.360;2023-02-19T14:22:57;95252.34;;;21.66;28.59
36192;BME280;22233;42.708;23.360;2023-02-19T14:30:42;95247.81;;;22.27;28.17
36192;BME280;22233;42.708;23.360;2023-02-19T14:33:10;95256.53;;;22.65;27.53
36192;BME280;22233;42.708;23.360;2023-02-19T14:35:46;95259.72;;;22.85;27.33
36192;BME280;22233;42.708;23.360;2023-02-19T14:38:15;95258.13;;;23.24;27.10
36192;BME280;22233;42.708;23.360;2023-02-19T14:40:44;95255.75;;;23.19;27.30
36192;BME280;22233;42.708;23.360;2023-02-19T14:43:13;95246.66;;;23.11;27.19
36192;BME280;22233;42.708;23.360;2023-02-19T14:45:43;95247.44;;;23.08;27.62
36192;BME280;22233;42.708;23.360;2023-02-19T14:48:17;95239.13;;;22.93;27.88
36192;BME280;22233;42.708;23.360;2023-02-19T14:50:48;95253.41;;;22.92;28.06
36192;BME280;22233;42.708;23.360;2023-02-19T14:53:15;95236.00;;;22.70;28.86
36192;BME280;22233;42.708;23.360;2023-02-19T14:55:41;95232.44;;;23.09;28.82
36192;BME280;22233;42.708;23.360;2023-02-19T14:58:13;95237.56;;;22.96;29.22
36192;BME280;22233;42.708;23.360;2023-02-19T15:00:40;95226.09;;;22.58;29.04
36192;BME280;22233;42.708;23.360;2023-02-19T15:03:23;95240.31;;;22.85;28.90
36192;BME280;22233;42.708;23.360;2023-02-19T15:05:55;95239.13;;;22.93;29.24
36192;BME280;22233;42.708;23.360;2023-02-19T15:08:27;95231.59;;;22.98;28.82
36192;BME280;22233;42.708;23.360;2023-02-19T15:10:54;95228.88;;;22.69;29.10
36192;BME280;22233;42.708;23.360;2023-02-19T15:13:24;95217.81;;;22.58;29.17